首页
METAR-TAF:

METAR-TAF

机场 :

贵阳龙洞堡国际机场

贵阳市, 中华人民共和国

纬度: 26-32-19N, 经度: 106-48-03E, 海拔: 1139米

当前天气观测

该预报发布于17分钟前的01:00 UTC
风速6节,风向东转东北
温度 0°C
湿度 86%
气压 1025 hPa
能见度10公里或以上
少量云层高于1100英尺
散云层高于1800英尺
阴天层高于3300英尺

METAR: ZUGY 260100Z 06003MPS 9999 FEW011 SCT018 OVC033 00/M02 Q1025 NOSIG

时间: 09:17 (01:17 UTC)

预报

该预报发布于4小时和15分钟前的21:02 UTC
预报有效从26日的 00点(UTC)到 26日的 24点(UTC)
风速8节,风向北转东北
能見度: 6000
多云层高于1500英尺
阴天层高于3000英尺

TAF: ZUGY 252102Z 2600/2624 03004MPS 6000 BKN015 OVC030 TX03/2607Z TNM01/2600Z

超过4000个机场的气象观测和天气预报(METAR&TAF报告)。

可查询的气象台以黄色和红色小点在地图上表示。

将鼠标移到小点上方,可查看气象台名称。

然后点击查看天气观测和预报。

如需切换地图:点击带黑十字的绿色按钮放大地图;点击带横线的绿色按钮缩小地图;或者点击绿色箭头查看邻近地区的地图。


METAR-TAF: